Terminal Aerodrome Forecast
Issued by NWS

Home | Current Version | Previous Version | Graphics & Text | Print | Product List | Glossary On
Versions: 1 2 3 4 5 6 7 8 9 10 11 12 13 14
658
FTUS43 KICT 182340
TAFHUT
TAF
KHUT 182340Z 1900/1924 17009KT P6SM SCT050 SCT150
     FM190800 17009KT P6SM SCT100
     FM191400 18017KT P6SM SCT080
     FM191700 18022G26KT P6SM SCT100
     FM192000 18025G35KT P6SM SKC=

USA.gov is the U.S. government's official web portal to all federal, state and local government web resources and services.